createdAt,value
2019-01-05T00:01:56.710Z,10.03
2019-01-05T00:04:44.679Z,10.50
2019-01-05T00:07:32.654Z,10.23
2019-01-05T00:10:20.605Z,10.37
2019-01-05T00:13:09.379Z,9.90
2019-01-05T00:15:57.669Z,9.77
2019-01-05T00:18:45.809Z,9.67
2019-01-05T00:24:36.108Z,9.37
2019-01-05T00:30:26.412Z,10.43
2019-01-05T00:36:21.857Z,10.80
2019-01-05T00:47:32.275Z,9.63
2019-01-05T00:53:25.513Z,10.83
2019-01-05T00:56:14.588Z,10.27
2019-01-05T00:59:08.501Z,9.70
2019-01-05T01:01:57.384Z,10.90
2019-01-05T01:04:48.465Z,9.90
2019-01-05T01:07:36.532Z,11.00
2019-01-05T01:10:24.529Z,10.80
2019-01-05T01:13:13.302Z,11.33
2019-01-05T01:16:01.382Z,12.00
2019-01-05T01:18:49.499Z,11.23
2019-01-05T01:24:21.247Z,11.93
2019-01-05T01:27:09.423Z,12.53
2019-01-05T01:32:59.610Z,13.40
2019-01-05T01:35:47.903Z,13.13
2019-01-05T01:39:14.706Z,13.27
2019-01-05T01:42:02.793Z,12.87
2019-01-05T01:50:40.691Z,12.30
2019-01-05T01:53:39.267Z,12.80
2019-01-05T02:02:36.549Z,13.90
2019-01-05T02:05:33.133Z,13.23
2019-01-05T02:14:47.274Z,11.73
2019-01-05T02:24:25.986Z,12.27
2019-01-05T02:27:36.201Z,11.93
2019-01-05T02:37:38.860Z,12.87
2019-01-05T02:41:02.241Z,13.27
2019-01-05T02:44:08.826Z,12.07
2019-01-05T02:47:35.596Z,12.83
2019-01-05T02:51:02.308Z,16.17
2019-01-05T02:54:35.213Z,17.50
2019-01-05T02:58:01.944Z,14.47
2019-01-05T03:04:40.498Z,13.27
2019-01-05T03:11:30.742Z,12.60
2019-01-05T03:14:58.260Z,12.70
2019-01-05T03:18:24.971Z,12.27
2019-01-05T03:21:36.109Z,12.50
2019-01-05T03:25:01.802Z,13.03
2019-01-05T03:28:28.502Z,13.47
2019-01-05T03:31:55.228Z,10.97
2019-01-05T03:35:21.939Z,11.93
2019-01-05T03:41:55.154Z,12.37
2019-01-05T03:45:21.862Z,11.40
2019-01-05T03:48:34.775Z,11.10
2019-01-05T03:51:53.393Z,11.00
2019-01-05T03:55:20.092Z,10.70
2019-01-05T03:58:46.808Z,11.43
2019-01-05T04:02:16.319Z,11.53
2019-01-05T04:05:39.218Z,11.03
2019-01-05T04:09:02.723Z,11.27
2019-01-05T04:12:29.297Z,10.30
2019-01-05T04:15:56.019Z,10.83
2019-01-05T04:19:22.637Z,10.50
2019-01-05T04:22:49.342Z,10.60
2019-01-05T04:26:18.891Z,11.80
2019-01-05T04:29:52.212Z,11.13
2019-01-05T04:33:16.784Z,11.57
2019-01-05T04:36:50.596Z,12.13
2019-01-05T04:40:09.245Z,10.43
2019-01-05T04:43:39.203Z,10.47
2019-01-05T04:47:05.907Z,10.73
2019-01-05T04:50:32.841Z,10.67
2019-01-05T04:54:00.604Z,11.03
2019-01-05T04:57:28.214Z,10.40
2019-01-05T05:00:52.528Z,10.23
2019-01-05T05:04:20.223Z,11.53
2019-01-05T05:10:58.142Z,10.57
2019-01-05T05:17:39.882Z,9.83
2019-01-05T05:21:06.550Z,10.67
2019-01-05T05:24:34.047Z,10.87
2019-01-05T05:28:00.685Z,9.97
2019-01-05T05:31:20.133Z,10.20
2019-01-05T05:34:46.910Z,10.20
2019-01-05T05:38:05.367Z,10.50
2019-01-05T05:41:32.209Z,10.07
2019-01-05T05:44:57.577Z,11.33
2019-01-05T05:48:28.134Z,12.23
2019-01-05T05:51:55.641Z,11.03
2019-01-05T05:58:38.153Z,12.63
2019-01-05T06:02:04.847Z,13.33
2019-01-05T06:08:43.175Z,11.63
2019-01-05T06:12:03.478Z,12.80
2019-01-05T06:15:31.027Z,12.43
2019-01-05T06:18:57.950Z,12.07
2019-01-05T06:22:20.537Z,13.07
2019-01-05T06:25:47.150Z,11.73
2019-01-05T06:29:13.958Z,13.43
2019-01-05T06:32:41.503Z,11.33
2019-01-05T06:36:08.117Z,12.97
2019-01-05T06:39:37.650Z,12.10
2019-01-05T06:43:07.163Z,13.63
2019-01-05T06:46:40.611Z,14.07
2019-01-05T06:50:07.331Z,13.57
2019-01-05T06:53:34.026Z,13.37
2019-01-05T06:57:00.788Z,13.97
2019-01-05T07:00:27.450Z,14.63
2019-01-05T07:03:54.173Z,13.97
2019-01-05T07:07:20.865Z,13.57
2019-01-05T07:17:19.197Z,13.80
2019-01-05T07:20:45.923Z,14.77
2019-01-05T07:24:12.642Z,13.40
2019-01-05T07:27:25.196Z,13.00
2019-01-05T07:30:51.902Z,12.13
2019-01-05T07:34:24.575Z,12.33
2019-01-05T07:37:52.666Z,13.80
2019-01-05T07:41:22.563Z,13.67
2019-01-05T07:44:50.086Z,14.53
2019-01-05T07:48:14.862Z,15.70
2019-01-05T07:51:42.385Z,16.10
2019-01-05T07:55:09.093Z,16.87
2019-01-05T07:58:35.701Z,16.73
2019-01-05T08:02:02.470Z,16.93
2019-01-05T08:05:29.205Z,17.53
2019-01-05T08:08:58.767Z,18.37
2019-01-05T08:12:25.383Z,19.03
2019-01-05T08:18:58.706Z,16.37
2019-01-05T08:22:25.307Z,14.20
2019-01-05T08:25:35.627Z,13.27
2019-01-05T08:29:02.366Z,14.10
2019-01-05T08:32:29.086Z,14.30
2019-01-05T08:35:55.803Z,15.40
2019-01-05T08:39:25.611Z,14.87
2019-01-05T08:42:52.306Z,15.00
2019-01-05T08:46:18.918Z,14.90
2019-01-05T08:49:35.206Z,13.97
2019-01-05T08:53:15.777Z,12.97
2019-01-05T08:57:09.429Z,13.37
2019-01-05T09:00:40.612Z,12.10
2019-01-05T09:04:07.314Z,11.13
2019-01-05T09:07:34.019Z,12.40
2019-01-05T09:11:00.965Z,12.03
2019-01-05T09:17:40.421Z,12.60
2019-01-05T09:20:58.839Z,12.53
2019-01-05T09:27:37.559Z,13.90
2019-01-05T09:31:04.167Z,13.10
2019-01-05T09:34:30.888Z,13.47
2019-01-05T09:37:54.164Z,13.67
2019-01-05T09:41:20.782Z,13.80
2019-01-05T09:44:47.550Z,12.80
2019-01-05T09:48:14.167Z,12.67
2019-01-05T09:51:40.778Z,13.60
2019-01-05T09:55:07.540Z,13.13
2019-01-05T09:58:17.340Z,14.50
2019-01-05T10:01:44.034Z,14.23
2019-01-05T10:05:13.665Z,13.67
2019-01-05T10:08:40.335Z,13.13
2019-01-05T10:12:07.091Z,13.07
2019-01-05T10:15:33.811Z,13.63
2019-01-05T10:19:00.534Z,13.17
2019-01-05T10:22:27.153Z,13.83
2019-01-05T10:25:53.849Z,11.20
2019-01-05T10:29:20.514Z,12.70
2019-01-05T10:32:47.240Z,13.23
2019-01-05T10:36:13.867Z,13.43
2019-01-05T10:39:40.631Z,12.73
2019-01-05T10:43:07.243Z,12.63
2019-01-05T10:46:33.957Z,12.63
2019-01-05T10:49:55.201Z,13.00
2019-01-05T10:53:22.714Z,11.93
2019-01-05T10:56:49.420Z,12.97
2019-01-05T11:00:22.353Z,14.03
2019-01-05T11:04:24.709Z,14.87
2019-01-05T11:07:40.289Z,13.37
2019-01-05T11:11:10.082Z,16.50
2019-01-05T11:14:31.405Z,15.40
2019-01-05T11:17:59.020Z,16.27
2019-01-05T11:21:21.206Z,18.97
2019-01-05T11:24:48.989Z,17.93
2019-01-05T11:28:15.755Z,18.13
2019-01-05T11:31:42.457Z,16.17
2019-01-05T11:38:21.728Z,16.77
2019-01-05T11:41:48.503Z,15.70
2019-01-05T11:45:15.095Z,14.03
2019-01-05T11:51:37.612Z,14.70
2019-01-05T11:55:04.216Z,14.13
2019-01-05T11:58:31.030Z,14.40
2019-01-05T12:05:10.187Z,13.97
2019-01-05T12:08:36.845Z,13.80
2019-01-05T12:15:11.976Z,15.47
2019-01-05T12:18:39.505Z,14.20
2019-01-05T12:22:06.260Z,14.70
2019-01-05T12:25:29.700Z,14.63
2019-01-05T12:28:57.215Z,14.50
2019-01-05T12:35:20.820Z,16.13
2019-01-05T12:38:49.061Z,16.03
2019-01-05T12:42:15.725Z,15.60
2019-01-05T12:45:43.236Z,16.07
2019-01-05T12:49:12.735Z,16.37
2019-01-05T12:52:43.196Z,20.83
2019-01-05T12:59:33.725Z,18.47
2019-01-05T13:03:01.249Z,17.57
2019-01-05T13:06:28.014Z,18.07
2019-01-05T13:09:54.625Z,20.50
2019-01-05T13:13:21.562Z,17.20
2019-01-05T13:16:54.139Z,17.73
2019-01-05T13:20:16.906Z,18.07
2019-01-05T13:23:46.789Z,16.50
2019-01-05T13:27:08.218Z,19.23
2019-01-05T13:30:35.784Z,19.97
2019-01-05T13:34:02.382Z,17.60
2019-01-05T13:37:29.196Z,18.47
2019-01-05T13:40:55.899Z,18.60
2019-01-05T13:44:22.665Z,17.83
2019-01-05T13:47:47.418Z,17.40
2019-01-05T13:51:14.235Z,17.80
2019-01-05T13:54:07.277Z,15.93
2019-01-05T13:57:10.565Z,16.00
2019-01-05T13:59:58.555Z,15.30
2019-01-05T14:05:39.309Z,15.80
2019-01-05T14:08:27.293Z,14.67
2019-01-05T14:11:15.244Z,13.80
2019-01-05T14:14:04.022Z,12.77
2019-01-05T14:16:52.009Z,12.80
2019-01-05T14:19:39.991Z,13.37
2019-01-05T14:22:27.882Z,13.77
2019-01-05T14:25:15.759Z,13.27
2019-01-05T14:28:03.738Z,14.57
2019-01-05T14:30:51.817Z,16.13
2019-01-05T14:33:40.603Z,15.97
2019-01-05T14:36:28.578Z,16.13
2019-01-05T14:39:16.447Z,14.63
2019-01-05T14:42:04.477Z,18.83
2019-01-05T14:44:53.260Z,17.80
2019-01-05T14:47:41.233Z,17.57
2019-01-05T14:50:29.205Z,18.63
2019-01-05T14:53:17.090Z,21.60
2019-01-05T14:56:05.873Z,24.57
2019-01-05T14:58:53.937Z,26.00
2019-01-05T15:01:42.707Z,28.57
2019-01-05T15:04:30.685Z,34.23
2019-01-05T15:07:18.689Z,33.70
2019-01-05T15:10:06.686Z,31.40
2019-01-05T15:12:54.670Z,40.90
2019-01-05T15:15:42.705Z,42.43
2019-01-05T15:18:31.511Z,40.13
2019-01-05T15:21:19.545Z,38.87
2019-01-05T15:24:07.542Z,35.30
2019-01-05T15:26:55.519Z,35.60
2019-01-05T15:29:43.506Z,33.27
2019-01-05T15:32:31.493Z,27.00
2019-01-05T15:35:19.464Z,21.63
2019-01-05T15:38:07.440Z,20.03
2019-01-05T15:40:55.414Z,20.30
2019-01-05T15:43:43.463Z,23.17
2019-01-05T15:46:31.453Z,21.50
2019-01-05T15:49:19.440Z,17.83
2019-01-05T15:52:07.476Z,17.23
2019-01-05T15:55:01.334Z,18.23
2019-01-05T15:57:49.323Z,17.47
2019-01-05T16:00:37.195Z,18.23
2019-01-05T16:03:25.178Z,21.20
2019-01-05T16:06:13.112Z,22.73
2019-01-05T16:09:00.996Z,23.20
2019-01-05T16:11:49.077Z,25.07
2019-01-05T16:14:36.947Z,28.47
2019-01-05T16:17:24.834Z,36.43
2019-01-05T16:20:12.754Z,41.77
2019-01-05T16:23:00.638Z,41.57
2019-01-05T16:25:48.615Z,44.40
2019-01-05T16:28:36.596Z,43.17
2019-01-05T16:31:24.682Z,41.97
2019-01-05T16:34:12.540Z,40.43
2019-01-05T16:37:00.514Z,41.60
2019-01-05T16:39:48.602Z,41.10
2019-01-05T16:42:36.950Z,36.20
2019-01-05T16:45:25.757Z,32.63
2019-01-05T16:48:13.810Z,27.43
2019-01-05T16:51:01.696Z,29.27
2019-01-05T16:53:49.675Z,29.27
2019-01-05T16:56:37.648Z,28.03
2019-01-05T16:59:26.095Z,28.47
2019-01-05T17:02:14.074Z,28.17
2019-01-05T17:05:02.059Z,30.27
2019-01-05T17:07:50.060Z,27.50
2019-01-05T17:10:38.045Z,27.23
2019-01-05T17:13:26.026Z,23.40
2019-01-05T17:16:13.930Z,27.87
2019-01-05T17:21:47.128Z,42.27
2019-01-05T17:24:35.233Z,40.57
2019-01-05T17:27:23.270Z,38.30
2019-01-05T17:30:12.107Z,35.03
2019-01-05T17:33:00.908Z,32.50
2019-01-05T17:35:48.868Z,31.83
2019-01-05T17:38:36.770Z,33.63
2019-01-05T17:41:24.739Z,34.13
2019-01-05T17:44:12.730Z,36.73
2019-01-05T17:47:00.614Z,35.47
2019-01-05T17:49:53.897Z,36.83
2019-01-05T17:52:42.697Z,32.53
2019-01-05T17:55:30.578Z,33.60
2019-01-05T17:58:31.314Z,35.33
2019-01-05T18:01:17.475Z,36.80
2019-01-05T18:04:05.541Z,35.43
2019-01-05T18:06:54.617Z,35.37
2019-01-05T18:09:43.534Z,33.90
2019-01-05T18:12:31.532Z,35.07
2019-01-05T18:15:19.824Z,34.40
2019-01-05T18:18:24.313Z,33.87
2019-01-05T18:21:13.660Z,35.07
2019-01-05T18:24:02.464Z,34.80
2019-01-05T18:26:50.649Z,32.77
2019-01-05T18:29:58.057Z,24.00
2019-01-05T18:32:46.517Z,22.77
2019-01-05T18:35:34.480Z,19.97
2019-01-05T18:38:23.601Z,20.40
2019-01-05T18:41:11.597Z,31.83
2019-01-05T18:44:00.508Z,29.03
2019-01-05T18:46:48.494Z,21.93
2019-01-05T18:49:37.578Z,18.77
2019-01-05T18:52:25.888Z,19.50
2019-01-05T18:55:13.909Z,19.70
2019-01-05T18:58:02.391Z,24.00
2019-01-05T19:01:09.997Z,34.00
2019-01-05T19:04:03.781Z,41.67
2019-01-05T19:06:52.661Z,43.63
2019-01-05T19:09:43.118Z,55.00
2019-01-05T19:12:31.118Z,74.83
2019-01-05T19:15:19.193Z,72.87
2019-01-05T19:18:07.247Z,62.27
2019-01-05T19:20:55.211Z,56.97
2019-01-05T19:23:43.101Z,57.90
2019-01-05T19:26:31.065Z,56.73
2019-01-05T19:29:19.890Z,57.30
2019-01-05T19:32:07.970Z,56.27
2019-01-05T19:34:56.007Z,59.23
2019-01-05T19:37:43.995Z,56.60
2019-01-05T19:40:51.595Z,43.83
2019-01-05T19:43:39.680Z,30.43
2019-01-05T19:46:29.513Z,29.47
2019-01-05T19:49:11.919Z,25.43
2019-01-05T19:52:00.721Z,22.10
2019-01-05T19:54:48.882Z,21.23
2019-01-05T19:57:36.860Z,23.50
2019-01-05T20:00:25.869Z,24.80
2019-01-05T20:03:13.905Z,25.17
2019-01-05T20:05:59.312Z,23.80
2019-01-05T20:08:47.337Z,23.17
2019-01-05T20:11:36.142Z,21.00
2019-01-05T20:14:24.123Z,23.50
2019-01-05T20:17:12.104Z,25.53
2019-01-05T20:20:00.255Z,22.80
2019-01-05T20:22:48.290Z,20.50
2019-01-05T20:25:36.169Z,20.40
2019-01-05T20:28:24.154Z,18.57
2019-01-05T20:31:12.146Z,17.13
2019-01-05T20:34:00.211Z,18.57
2019-01-05T20:36:48.194Z,25.17
2019-01-05T20:39:26.905Z,35.30
2019-01-05T20:42:15.690Z,42.87
2019-01-05T20:45:03.577Z,45.77
2019-01-05T20:47:51.656Z,43.87
2019-01-05T20:50:39.637Z,36.20
2019-01-05T20:53:27.635Z,31.27
2019-01-05T20:56:15.672Z,39.07
2019-01-05T20:59:04.438Z,39.33
2019-01-05T21:01:52.388Z,35.10
2019-01-05T21:04:40.365Z,27.43
2019-01-05T21:07:28.621Z,25.37
2019-01-05T21:10:16.610Z,26.57
2019-01-05T21:13:04.699Z,28.20
2019-01-05T21:15:52.688Z,28.17
2019-01-05T21:18:40.702Z,25.90
2019-01-05T21:21:28.595Z,26.70
2019-01-05T21:24:16.569Z,29.00
2019-01-05T21:27:04.452Z,26.13
2019-01-05T21:29:52.960Z,26.30
2019-01-05T21:32:40.847Z,27.77
2019-01-05T21:35:28.824Z,26.77
2019-01-05T21:41:09.820Z,28.03
2019-01-05T21:43:57.796Z,26.27
2019-01-05T21:46:46.613Z,27.40
2019-01-05T21:49:34.497Z,24.63
2019-01-05T21:52:23.278Z,24.27
2019-01-05T21:55:11.146Z,22.47
2019-01-05T21:57:59.029Z,21.73
2019-01-05T22:00:47.064Z,20.17
2019-01-05T22:03:35.054Z,22.90
2019-01-05T22:06:23.038Z,22.83
2019-01-05T22:09:11.030Z,23.27
2019-01-05T22:11:59.013Z,27.03
2019-01-05T22:14:46.903Z,30.30
2019-01-05T22:17:34.785Z,31.13
2019-01-05T22:20:23.062Z,32.60
2019-01-05T22:23:11.125Z,33.17
2019-01-05T22:25:59.905Z,35.23
2019-01-05T22:28:47.845Z,35.40
2019-01-05T22:34:38.480Z,36.37
2019-01-05T22:37:26.485Z,35.63
2019-01-05T22:40:14.486Z,34.77
2019-01-05T22:43:03.328Z,35.60
2019-01-05T22:45:52.135Z,36.07
2019-01-05T22:48:40.022Z,36.63
2019-01-05T22:51:28.008Z,33.03
2019-01-05T22:54:15.938Z,30.27
2019-01-05T22:57:04.725Z,29.20
2019-01-05T23:02:47.101Z,29.57
2019-01-05T23:05:34.981Z,29.83
2019-01-05T23:08:25.726Z,31.47
2019-01-05T23:11:14.509Z,31.20
2019-01-05T23:14:02.387Z,35.27
2019-01-05T23:16:50.362Z,33.67
2019-01-05T23:19:38.246Z,34.27
2019-01-05T23:22:26.291Z,33.23
2019-01-05T23:25:14.265Z,34.57
2019-01-05T23:28:02.349Z,33.20
2019-01-05T23:30:50.332Z,34.87
2019-01-05T23:33:38.372Z,31.13
2019-01-05T23:36:27.146Z,29.07
2019-01-05T23:39:15.086Z,28.83
2019-01-05T23:42:03.859Z,25.30
2019-01-05T23:44:51.831Z,23.53
2019-01-05T23:47:39.811Z,22.83
2019-01-05T23:50:27.785Z,22.20
2019-01-05T23:53:15.673Z,21.43
2019-01-05T23:56:03.661Z,19.20
2019-01-05T23:58:51.744Z,19.57
